Nassau, Bahamas

6:18 AM EDT on September 19, 2014 (GMT -0400)
Nassau International | Change Station
CLOSE
Current Station
Airport
Location: Nassau,
Elevation: 23 ft
Nearby Weather Stations

Elev 23 ft 25.04 °N, 77.47 °W | Updated 18 minutes ago

Scattered Clouds
Scattered Clouds
77 °F
Feels Like 77 °F
N
0
Wind Variable Wind from North

Today
High -- | Low -- °F
--% Chance of Precip.
Yesterday
High -- | Low -- °F
Precip. -- in
6:57 AM 7:09 PM
Waning Crescent, 20% visible
Pressure 29.93 in
Visibility 6.2 miles
Clouds Scattered Clouds 1700 ft
Dew Point 75 °F
Humidity 94%
Rainfall 0.00 in
Snow Depth Not available.
UV 0 out of 12
Pollen Not available.
Air Quality Not available.
Flu Activity Not available.
METAR MYNN 191000Z 00000KT 9999 SCT017 25/24 A2993

More Conditions Fewer Conditions

Pressure 29.93 in
Visibility 6.2 miles
Clouds Scattered Clouds 1700 ft
Dew Point 75 °F
Humidity 94%
Rainfall 0.00 in
Snow Depth Not available.
UV 0 out of 12
Pollen Not available.
Air Quality Not available.
Flu Activity Not available.
METAR MYNN 191000Z 00000KT 9999 SCT017 25/24 A2993

More Conditions Fewer Conditions

10-Day Weather Forecast

Almanac

Astronomy

Sep. 19, 2014 Rise Set
Actual Time 6:57 AM EDT 7:09 PM EDT
Civil Twilight 6:34 AM EDT 7:32 PM EDT
Nautical Twilight 6:07 AM EDT 7:58 PM EDT
Astronomical Twilight 5:41 AM EDT 8:25 PM EDT
Moon 3:01 AM EDT 4:18 PM EDT
Length of Visible Light 12h 57m
Length of Day
12h 12m
Tomorrow will be 1m 27s shorter.
Waning Crescent, 20% of the Moon is Illuminated
Today
Waning Crescent
Sep 24
New
Oct 1
First Quarter
Oct 8
Full
Oct 15
Last Quarter

Yesterday's Extremes

Country Highs Country Lows

Community

WunderPhotos

Upload Photos

1,754,583 photos uploaded!

Nearby

Snow Depth

Not available.

Earthquake Activity

City Distance Mag. Time & Date
No recent earthquake activity has been reported nearby.
Minimum magnitude displayed is 2.5.

Coastal Water Temperatures

Place Temperature
No Stations Reporting

Nearby Weather Stations